createdAt,value
2022-09-28T00:01:19.328Z,1.98
2022-09-28T00:03:47.076Z,2.13
2022-09-28T00:06:15.708Z,2.70
2022-09-28T00:08:42.293Z,2.08
2022-09-28T00:13:38.779Z,2.30
2022-09-28T00:18:34.601Z,1.63
2022-09-28T00:21:24.418Z,2.08
2022-09-28T00:24:14.972Z,2.30
2022-09-28T00:26:56.565Z,2.08
2022-09-28T00:29:34.100Z,2.35
2022-09-28T00:32:03.428Z,1.85
2022-09-28T00:34:35.960Z,2.08
2022-09-28T00:37:04.526Z,2.00
2022-09-28T00:39:35.883Z,1.90
2022-09-28T00:42:03.508Z,2.45
2022-09-28T00:44:36.170Z,2.13
2022-09-28T00:47:34.673Z,1.90
2022-09-28T00:50:27.958Z,1.48
2022-09-28T00:53:06.680Z,2.08
2022-09-28T00:55:50.225Z,2.35
2022-09-28T00:58:23.938Z,2.08
2022-09-28T01:00:50.549Z,2.00
2022-09-28T01:03:17.475Z,1.85
2022-09-28T01:05:46.827Z,1.75
2022-09-28T01:08:14.275Z,1.83
2022-09-28T01:10:41.167Z,2.40
2022-09-28T01:13:07.769Z,3.05
2022-09-28T01:18:46.166Z,3.00
2022-09-28T01:21:18.958Z,2.97
2022-09-28T01:24:03.664Z,2.60
2022-09-28T01:26:50.278Z,2.35
2022-09-28T01:29:36.360Z,2.00
2022-09-28T01:32:35.331Z,2.15
2022-09-28T01:35:08.004Z,2.38
2022-09-28T01:37:47.306Z,2.78
2022-09-28T01:40:15.650Z,2.88
2022-09-28T01:42:45.687Z,3.28
2022-09-28T01:45:23.151Z,2.85
2022-09-28T01:47:53.689Z,3.17
2022-09-28T01:50:25.452Z,3.13
2022-09-28T01:53:10.274Z,2.95
2022-09-28T01:55:45.773Z,3.58
2022-09-28T01:58:17.555Z,3.47
2022-09-28T02:00:49.478Z,3.17
2022-09-28T02:03:21.900Z,2.60
2022-09-28T02:06:06.237Z,2.80
2022-09-28T02:08:37.575Z,2.78
2022-09-28T02:11:16.324Z,3.13
2022-09-28T02:13:44.774Z,2.80
2022-09-28T02:16:42.310Z,2.67
2022-09-28T02:19:17.179Z,2.67
2022-09-28T02:21:57.862Z,3.40
2022-09-28T02:24:34.094Z,2.88
2022-09-28T02:27:10.405Z,3.10
2022-09-28T02:29:37.097Z,3.93
2022-09-28T02:32:03.736Z,3.40
2022-09-28T02:34:30.196Z,2.97
2022-09-28T02:36:57.588Z,3.30
2022-09-28T02:39:24.133Z,3.30
2022-09-28T02:44:57.744Z,4.28
2022-09-28T02:47:52.572Z,4.15
2022-09-28T02:50:45.871Z,3.83
2022-09-28T02:53:35.333Z,4.50
2022-09-28T02:56:11.351Z,5.10
2022-09-28T02:58:58.733Z,4.82
2022-09-28T03:01:37.324Z,5.25
2022-09-28T03:04:36.056Z,5.35
2022-09-28T03:07:22.814Z,5.10
2022-09-28T03:10:04.818Z,6.10
2022-09-28T03:12:33.189Z,7.88
2022-09-28T03:15:07.609Z,6.97
2022-09-28T03:17:34.252Z,9.07
2022-09-28T03:22:27.249Z,10.63
2022-09-28T03:27:20.105Z,11.73
2022-09-28T03:29:46.775Z,11.18
2022-09-28T03:34:39.769Z,11.65
2022-09-28T03:39:32.706Z,12.43
2022-09-28T03:42:02.697Z,11.77
2022-09-28T03:44:32.513Z,10.20
2022-09-28T03:49:25.344Z,11.05
2022-09-28T03:51:51.802Z,10.73
2022-09-28T03:54:19.001Z,11.00
2022-09-28T03:56:45.480Z,9.80
2022-09-28T03:59:11.946Z,11.40
2022-09-28T04:01:38.646Z,10.20
2022-09-28T04:04:05.371Z,8.90
2022-09-28T04:06:31.861Z,10.57
2022-09-28T04:11:25.743Z,9.82
2022-09-28T04:16:19.305Z,9.43
2022-09-28T04:18:58.207Z,8.52
2022-09-28T04:21:43.171Z,9.02
2022-09-28T04:24:12.666Z,8.57
2022-09-28T04:29:18.602Z,6.32
2022-09-28T04:31:54.298Z,6.63
2022-09-28T04:34:29.793Z,6.90
2022-09-28T04:36:58.451Z,6.55
2022-09-28T04:39:25.024Z,6.05
2022-09-28T04:41:53.740Z,5.57
2022-09-28T04:44:20.203Z,6.53
2022-09-28T04:46:48.277Z,6.43
2022-09-28T04:49:29.819Z,6.03
2022-09-28T04:51:58.601Z,6.57
2022-09-28T04:54:25.024Z,5.93
2022-09-28T04:56:52.541Z,7.32
2022-09-28T04:59:19.349Z,6.57
2022-09-28T05:04:41.158Z,6.07
2022-09-28T05:07:36.925Z,6.15
2022-09-28T05:10:05.819Z,6.95
2022-09-28T05:12:32.966Z,7.13
2022-09-28T05:15:00.552Z,6.07
2022-09-28T05:17:27.206Z,5.07
2022-09-28T05:20:16.750Z,5.57
2022-09-28T05:25:09.641Z,5.25
2022-09-28T05:27:47.942Z,4.88
2022-09-28T05:30:34.451Z,4.13
2022-09-28T05:33:19.385Z,4.07
2022-09-28T05:36:00.755Z,4.18
2022-09-28T05:38:28.442Z,4.85
2022-09-28T05:40:56.020Z,4.78
2022-09-28T05:43:22.588Z,4.10
2022-09-28T05:48:21.995Z,4.75
2022-09-28T05:53:19.313Z,4.85
2022-09-28T05:55:46.179Z,4.55
2022-09-28T05:58:13.252Z,4.85
2022-09-28T06:03:11.012Z,3.88
2022-09-28T06:05:39.174Z,4.10
2022-09-28T06:08:08.501Z,4.75
2022-09-28T06:10:35.143Z,3.30
2022-09-28T06:13:02.586Z,3.55
2022-09-28T06:15:31.611Z,3.13
2022-09-28T06:18:04.913Z,3.40
2022-09-28T06:20:42.768Z,4.40
2022-09-28T06:23:16.426Z,8.77
2022-09-28T06:25:43.560Z,10.70
2022-09-28T06:28:12.412Z,10.27
2022-09-28T06:30:40.062Z,6.88
2022-09-28T06:33:12.678Z,4.22
2022-09-28T06:35:39.962Z,5.20
2022-09-28T06:38:06.936Z,3.25
2022-09-28T06:40:34.155Z,2.33
2022-09-28T06:43:04.776Z,2.70
2022-09-28T06:46:09.695Z,2.50
2022-09-28T06:48:54.552Z,2.00
2022-09-28T06:51:40.984Z,2.30
2022-09-28T06:54:18.404Z,2.08
2022-09-28T06:57:02.147Z,1.60
2022-09-28T06:59:29.894Z,2.30
2022-09-28T07:01:57.453Z,1.70
2022-09-28T07:04:43.039Z,1.98
2022-09-28T07:07:33.127Z,1.52
2022-09-28T07:10:12.782Z,1.80
2022-09-28T07:12:53.882Z,1.80
2022-09-28T07:15:25.203Z,1.70
2022-09-28T07:18:02.043Z,1.63
2022-09-28T07:20:30.403Z,1.83
2022-09-28T07:23:14.467Z,1.60
2022-09-28T07:26:07.621Z,1.63
2022-09-28T07:29:01.833Z,2.30
2022-09-28T07:31:39.099Z,2.10
2022-09-28T07:34:18.417Z,1.83
2022-09-28T07:36:58.093Z,2.20
2022-09-28T07:39:24.794Z,1.83
2022-09-28T07:41:52.681Z,2.28
2022-09-28T07:44:21.741Z,1.60
2022-09-28T07:46:52.117Z,1.95
2022-09-28T07:49:26.895Z,2.47
2022-09-28T07:52:13.602Z,2.17
2022-09-28T07:55:07.091Z,1.40
2022-09-28T07:58:09.286Z,1.70
2022-09-28T08:00:48.051Z,1.53
2022-09-28T08:03:17.145Z,1.90
2022-09-28T08:05:43.765Z,1.73
2022-09-28T08:08:10.511Z,1.65
2022-09-28T08:10:37.947Z,2.13
2022-09-28T08:13:44.031Z,1.55
2022-09-28T08:16:33.358Z,1.85
2022-09-28T08:19:12.227Z,2.10
2022-09-28T08:21:44.919Z,2.05
2022-09-28T08:24:15.759Z,1.45
2022-09-28T08:26:43.161Z,1.48
2022-09-28T08:29:11.333Z,1.85
2022-09-28T08:32:08.130Z,2.05
2022-09-28T08:34:40.088Z,1.60
2022-09-28T08:37:25.307Z,1.80
2022-09-28T08:40:26.999Z,2.70
2022-09-28T08:43:23.997Z,1.90
2022-09-28T08:46:01.167Z,2.47
2022-09-28T08:49:24.546Z,1.73
2022-09-28T08:52:25.921Z,1.60
2022-09-28T08:55:07.341Z,1.67
2022-09-28T08:57:45.201Z,1.70
2022-09-28T09:00:47.338Z,1.67
2022-09-28T09:03:17.938Z,1.90
2022-09-28T09:06:09.723Z,1.85
2022-09-28T09:09:04.967Z,2.65
2022-09-28T09:12:10.995Z,1.60
2022-09-28T09:15:15.278Z,2.10
2022-09-28T09:17:56.958Z,1.85
2022-09-28T09:20:50.915Z,1.90
2022-09-28T09:23:44.088Z,2.15
2022-09-28T09:26:25.242Z,1.88
2022-09-28T09:29:01.979Z,2.30
2022-09-28T09:31:57.545Z,2.67
2022-09-28T09:34:51.239Z,1.60
2022-09-28T09:38:02.227Z,1.90
2022-09-28T09:41:09.062Z,1.90
2022-09-28T09:44:33.526Z,2.05
2022-09-28T09:47:35.911Z,2.35
2022-09-28T09:50:15.274Z,1.80
2022-09-28T09:53:02.701Z,2.30
2022-09-28T09:55:57.149Z,1.88
2022-09-28T09:59:04.447Z,1.83
2022-09-28T10:04:44.423Z,2.08
2022-09-28T10:07:24.487Z,2.03
2022-09-28T10:09:57.235Z,2.15
2022-09-28T10:12:42.258Z,2.65
2022-09-28T10:32:44.874Z,2.58
2022-09-28T10:35:14.711Z,2.30
2022-09-28T10:37:55.063Z,2.28
2022-09-28T10:41:11.168Z,2.00
2022-09-28T10:44:07.199Z,2.35
2022-09-28T10:46:43.289Z,2.60
2022-09-28T10:49:17.477Z,1.80
2022-09-28T10:51:57.415Z,2.05
2022-09-28T10:54:32.023Z,2.08
2022-09-28T10:57:00.463Z,2.20
2022-09-28T10:59:41.943Z,2.15
2022-09-28T11:02:36.243Z,2.17
2022-09-28T11:05:18.471Z,2.58
2022-09-28T11:07:46.903Z,3.42
2022-09-28T11:10:34.615Z,3.65
2022-09-28T11:13:21.437Z,2.28
2022-09-28T11:15:58.699Z,1.98
2022-09-28T11:18:34.623Z,2.03
2022-09-28T11:21:18.260Z,2.50
2022-09-28T11:24:20.408Z,2.88
2022-09-28T11:26:54.292Z,1.75
2022-09-28T11:29:30.953Z,1.90
2022-09-28T11:32:16.366Z,2.03
2022-09-28T11:35:06.500Z,1.98
2022-09-28T11:38:04.533Z,2.00
2022-09-28T11:41:07.144Z,2.15
2022-09-28T11:44:28.248Z,2.05
2022-09-28T11:47:43.303Z,2.33
2022-09-28T11:50:24.805Z,2.10
2022-09-28T11:53:04.060Z,2.28
2022-09-28T11:55:37.371Z,1.88
2022-09-28T11:58:15.808Z,1.83
2022-09-28T12:00:48.644Z,1.48
2022-09-28T12:03:21.508Z,2.03
2022-09-28T12:05:48.533Z,1.70
2022-09-28T12:11:24.083Z,2.22
2022-09-28T12:14:19.172Z,1.85
2022-09-28T12:17:05.298Z,2.33
2022-09-28T12:19:42.324Z,1.95
2022-09-28T12:22:18.352Z,1.65
2022-09-28T12:24:51.387Z,1.70
2022-09-28T12:27:29.988Z,1.35
2022-09-28T12:30:15.280Z,2.28
2022-09-28T12:32:48.320Z,1.90
2022-09-28T12:35:23.765Z,1.90
2022-09-28T12:38:14.947Z,2.10
2022-09-28T12:40:55.606Z,1.95
2022-09-28T12:43:44.324Z,1.95
2022-09-28T12:46:48.971Z,2.10
2022-09-28T12:50:37.000Z,2.35
2022-09-28T12:53:04.836Z,1.98
2022-09-28T12:56:02.259Z,1.92
2022-09-28T12:58:59.961Z,2.23
2022-09-28T13:01:51.527Z,1.98
2022-09-28T13:04:56.308Z,2.60
2022-09-28T13:07:37.855Z,1.95
2022-09-28T13:10:33.184Z,2.63
2022-09-28T13:13:17.706Z,2.00
2022-09-28T13:16:11.185Z,1.85
2022-09-28T13:18:46.536Z,1.90
2022-09-28T13:21:26.301Z,2.00
2022-09-28T13:24:08.794Z,2.35
2022-09-28T13:26:47.371Z,1.60
2022-09-28T13:29:17.659Z,2.13
2022-09-28T13:31:50.683Z,2.45
2022-09-28T13:34:22.589Z,1.80
2022-09-28T13:37:21.874Z,2.00
2022-09-28T13:39:59.136Z,2.42
2022-09-28T13:42:47.521Z,1.77
2022-09-28T13:45:22.991Z,1.90
2022-09-28T13:48:08.707Z,1.88
2022-09-28T13:50:45.767Z,1.80
2022-09-28T13:53:45.085Z,1.83
2022-09-28T13:56:36.286Z,1.80
2022-09-28T13:59:34.436Z,2.28
2022-09-28T14:02:13.631Z,2.13
2022-09-28T14:04:54.872Z,2.03
2022-09-28T14:07:47.065Z,2.20
2022-09-28T14:10:21.235Z,1.95
2022-09-28T14:12:52.085Z,2.10
2022-09-28T14:15:36.886Z,1.65
2022-09-28T14:18:31.446Z,3.45
2022-09-28T14:21:31.603Z,2.25
2022-09-28T14:24:13.160Z,2.10
2022-09-28T14:26:42.358Z,2.40
2022-09-28T14:29:28.361Z,3.08
2022-09-28T14:31:58.263Z,2.80
2022-09-28T14:34:38.518Z,2.50
2022-09-28T14:37:40.784Z,2.45
2022-09-28T14:40:49.371Z,2.17
2022-09-28T14:43:44.647Z,2.80
2022-09-28T14:46:11.346Z,2.85
2022-09-28T14:48:47.998Z,2.80
2022-09-28T14:51:26.312Z,2.60
2022-09-28T14:54:03.877Z,2.55
2022-09-28T14:56:43.617Z,2.63
2022-09-28T14:59:17.131Z,2.90
2022-09-28T15:01:53.640Z,2.97
2022-09-28T15:04:21.147Z,3.05
2022-09-28T15:06:50.143Z,2.83
2022-09-28T15:09:38.011Z,2.65
2022-09-28T15:12:24.475Z,2.67
2022-09-28T15:15:02.117Z,2.85
2022-09-28T15:17:34.630Z,2.50
2022-09-28T15:20:26.016Z,2.47
2022-09-28T15:22:57.641Z,2.47
2022-09-28T15:25:30.460Z,2.47
2022-09-28T15:28:00.958Z,2.90
2022-09-28T15:30:34.297Z,2.40
2022-09-28T15:33:21.829Z,2.67
2022-09-28T15:36:02.845Z,2.33
2022-09-28T15:38:34.080Z,2.30
2022-09-28T15:41:04.837Z,2.15
2022-09-28T15:43:33.658Z,2.15
2022-09-28T15:46:18.770Z,3.00
2022-09-28T15:48:55.311Z,2.25
2022-09-28T15:51:23.771Z,2.38
2022-09-28T15:53:52.822Z,2.92
2022-09-28T15:56:19.353Z,2.85
2022-09-28T15:59:10.617Z,3.42
2022-09-28T16:01:39.692Z,3.05
2022-09-28T16:04:30.819Z,3.58
2022-09-28T16:07:12.690Z,3.13
2022-09-28T16:09:55.292Z,3.17
2022-09-28T16:12:22.933Z,3.42
2022-09-28T16:14:51.799Z,3.05
2022-09-28T16:17:33.494Z,2.72
2022-09-28T16:20:03.722Z,2.47
2022-09-28T16:22:32.766Z,2.60
2022-09-28T16:25:00.975Z,2.38
2022-09-28T16:27:41.371Z,3.00
2022-09-28T16:30:27.273Z,3.05
2022-09-28T16:33:01.881Z,4.22
2022-09-28T16:35:31.191Z,5.40
2022-09-28T16:38:04.365Z,5.13
2022-09-28T16:40:32.245Z,4.03
2022-09-28T16:43:03.242Z,3.42
2022-09-28T16:45:29.856Z,3.38
2022-09-28T16:50:25.530Z,2.67
2022-09-28T16:53:17.625Z,2.70
2022-09-28T16:55:46.295Z,2.80
2022-09-28T16:58:13.057Z,2.70
2022-09-28T17:00:42.739Z,2.78
2022-09-28T17:03:18.599Z,2.60
2022-09-28T17:05:47.362Z,3.45
2022-09-28T17:08:17.535Z,2.70
2022-09-28T17:11:16.599Z,2.92
2022-09-28T17:13:41.392Z,2.97
2022-09-28T17:16:32.214Z,2.78
2022-09-28T17:19:03.516Z,2.97
2022-09-28T17:21:30.970Z,2.80
2022-09-28T17:23:57.695Z,2.90
2022-09-28T17:26:31.698Z,3.38
2022-09-28T17:28:59.382Z,3.10
2022-09-28T17:31:26.350Z,4.30
2022-09-28T17:33:52.858Z,5.00
2022-09-28T17:36:19.424Z,3.70
2022-09-28T17:41:20.031Z,3.80
2022-09-28T17:43:47.115Z,3.50
2022-09-28T17:48:55.377Z,8.40
2022-09-28T17:51:22.524Z,7.63
2022-09-28T17:53:49.245Z,6.28
2022-09-28T17:56:15.706Z,4.78
2022-09-28T17:58:42.118Z,3.67
2022-09-28T18:01:09.212Z,4.05
2022-09-28T18:03:35.703Z,3.90
2022-09-28T18:06:08.600Z,3.75
2022-09-28T18:08:37.018Z,4.13
2022-09-28T18:11:03.491Z,3.38
2022-09-28T18:13:29.995Z,3.75
2022-09-28T18:18:24.199Z,3.13
2022-09-28T18:20:51.260Z,4.28
2022-09-28T18:23:17.910Z,3.13
2022-09-28T18:28:12.584Z,4.15
2022-09-28T18:30:44.637Z,5.43
2022-09-28T18:33:13.191Z,4.70
2022-09-28T18:35:40.004Z,5.28
2022-09-28T18:38:07.414Z,6.00
2022-09-28T18:40:35.434Z,5.55
2022-09-28T18:43:02.765Z,4.82
2022-09-28T18:45:29.255Z,4.50
2022-09-28T18:47:56.010Z,4.63
2022-09-28T18:50:22.586Z,4.80
2022-09-28T18:55:15.811Z,4.60
2022-09-28T18:57:44.023Z,4.38
2022-09-28T19:00:12.118Z,3.50
2022-09-28T19:02:39.112Z,3.50
2022-09-28T19:05:06.445Z,3.40
2022-09-28T19:07:33.877Z,3.28
2022-09-28T19:10:00.386Z,3.20
2022-09-28T19:12:27.362Z,3.30
2022-09-28T19:14:53.773Z,3.40
2022-09-28T19:17:20.728Z,3.85
2022-09-28T19:19:47.190Z,3.40
2022-09-28T19:22:13.699Z,4.30
2022-09-28T19:24:40.439Z,4.00
2022-09-28T19:27:07.208Z,3.38
2022-09-28T19:29:34.211Z,3.10
2022-09-28T19:32:00.800Z,3.40
2022-09-28T19:36:56.969Z,3.20
2022-09-28T19:39:23.532Z,3.30
2022-09-28T19:44:27.571Z,3.05
2022-09-28T19:46:56.779Z,3.28
2022-09-28T19:49:24.833Z,2.90
2022-09-28T19:52:12.710Z,3.05
2022-09-28T19:54:39.601Z,2.83
2022-09-28T19:57:07.705Z,3.08
2022-09-28T19:59:35.508Z,4.18
2022-09-28T20:02:03.117Z,3.60
2022-09-28T20:04:29.968Z,7.97
2022-09-28T20:06:56.539Z,10.07
2022-09-28T20:11:51.729Z,10.00
2022-09-28T20:14:23.384Z,7.57
2022-09-28T20:16:52.277Z,6.78
2022-09-28T20:19:21.456Z,4.35
2022-09-28T20:21:48.362Z,4.95
2022-09-28T20:24:17.099Z,4.18
2022-09-28T20:26:44.706Z,4.22
2022-09-28T20:29:11.788Z,4.35
2022-09-28T20:31:38.386Z,4.10
2022-09-28T20:36:32.470Z,5.35
2022-09-28T20:39:02.682Z,4.68
2022-09-28T20:41:35.628Z,4.57
2022-09-28T20:44:05.923Z,4.28
2022-09-28T20:46:36.676Z,4.65
2022-09-28T20:49:04.359Z,4.47
2022-09-28T20:51:31.243Z,4.38
2022-09-28T20:53:58.828Z,4.65
2022-09-28T20:56:28.028Z,4.65
2022-09-28T20:58:55.228Z,5.45
2022-09-28T21:01:24.081Z,4.57
2022-09-28T21:03:56.680Z,4.50
2022-09-28T21:06:29.752Z,5.95
2022-09-28T21:08:56.622Z,5.55
2022-09-28T21:11:24.743Z,5.07
2022-09-28T21:13:59.853Z,5.03
2022-09-28T21:16:28.609Z,5.18
2022-09-28T21:18:55.271Z,4.30
2022-09-28T21:21:23.021Z,4.95
2022-09-28T21:23:56.938Z,4.93
2022-09-28T21:26:25.853Z,5.07
2022-09-28T21:28:53.676Z,5.05
2022-09-28T21:31:23.685Z,5.22
2022-09-28T21:33:54.147Z,5.00
2022-09-28T21:36:20.563Z,5.25
2022-09-28T21:38:47.006Z,6.13
2022-09-28T21:41:13.615Z,5.65
2022-09-28T21:46:06.579Z,5.90
2022-09-28T21:51:01.581Z,5.65
2022-09-28T21:53:30.708Z,5.47
2022-09-28T21:55:58.623Z,6.32
2022-09-28T21:58:27.656Z,5.97
2022-09-28T22:17:33.317Z,6.53
2022-09-28T22:22:29.197Z,6.38
2022-09-28T22:24:56.167Z,6.57
2022-09-28T22:27:23.934Z,6.80
2022-09-28T22:29:51.077Z,7.05
2022-09-28T22:32:17.705Z,7.43
2022-09-28T22:34:44.232Z,5.97
2022-09-28T22:39:37.989Z,6.43
2022-09-28T22:42:04.787Z,7.18
2022-09-28T22:44:31.300Z,6.65
2022-09-28T22:49:24.643Z,6.78
2022-09-28T22:54:18.154Z,7.70
2022-09-28T22:56:44.786Z,6.40
2022-09-28T23:01:38.703Z,6.20
2022-09-28T23:04:05.584Z,5.82
2022-09-28T23:06:33.103Z,6.15
2022-09-28T23:09:00.405Z,6.13
2022-09-28T23:11:27.939Z,6.18
2022-09-28T23:13:56.964Z,5.95
2022-09-28T23:16:25.740Z,6.57
2022-09-28T23:18:54.290Z,5.75
2022-09-28T23:21:23.609Z,7.18
2022-09-28T23:23:58.849Z,6.60
2022-09-28T23:26:29.864Z,6.72
2022-09-28T23:28:56.713Z,6.60
2022-09-28T23:31:25.925Z,6.82
2022-09-28T23:34:00.483Z,6.78
2022-09-28T23:36:27.402Z,6.82
2022-09-28T23:38:54.265Z,6.95
2022-09-28T23:41:21.052Z,6.68
2022-09-28T23:43:47.566Z,6.57
2022-09-28T23:48:47.249Z,7.68
2022-09-28T23:53:40.225Z,7.35
2022-09-28T23:58:33.289Z,6.63
